createdAt,value
2018-11-14T00:00:28.850Z,28.63
2018-11-14T00:02:57.596Z,29.87
2018-11-14T00:05:25.658Z,40.20
2018-11-14T00:07:53.794Z,34.97
2018-11-14T00:10:21.841Z,22.17
2018-11-14T00:12:49.881Z,25.07
2018-11-14T00:15:21.168Z,22.60
2018-11-14T00:17:49.845Z,21.83
2018-11-14T00:20:17.917Z,25.57
2018-11-14T00:22:46.802Z,27.63
2018-11-14T00:25:14.866Z,14.30
2018-11-14T00:27:43.001Z,25.47
2018-11-14T00:30:18.008Z,30.33
2018-11-14T00:32:46.020Z,27.80
2018-11-14T00:35:14.442Z,24.10
2018-11-14T00:37:42.980Z,33.17
2018-11-14T00:40:12.366Z,18.77
2018-11-14T00:42:40.889Z,25.40
2018-11-14T00:45:10.813Z,25.30
2018-11-14T00:47:38.881Z,10.93
2018-11-14T00:50:07.593Z,28.50
2018-11-14T00:52:35.641Z,22.50
2018-11-14T00:55:03.713Z,19.40
2018-11-14T00:57:31.744Z,26.20
2018-11-14T00:59:59.925Z,18.10
2018-11-14T01:02:27.942Z,33.03
2018-11-14T01:04:56.015Z,31.70
2018-11-14T01:07:24.069Z,26.90
2018-11-14T01:09:52.179Z,24.13
2018-11-14T01:12:20.231Z,24.43
2018-11-14T01:14:48.281Z,28.57
2018-11-14T01:17:16.363Z,23.57
2018-11-14T01:19:44.388Z,20.27
2018-11-14T01:22:12.426Z,33.83
2018-11-14T01:24:40.488Z,21.60
2018-11-14T01:27:08.568Z,25.13
2018-11-14T01:29:36.582Z,26.20
2018-11-14T01:32:05.155Z,20.93
2018-11-14T01:34:33.202Z,24.33
2018-11-14T01:37:01.240Z,42.30
2018-11-14T01:39:29.278Z,25.40
2018-11-14T01:41:57.370Z,33.67
2018-11-14T01:44:25.409Z,39.20
2018-11-14T01:46:53.487Z,32.33
2018-11-14T01:49:21.553Z,33.53
2018-11-14T01:51:49.682Z,25.80
2018-11-14T01:54:17.729Z,29.17
2018-11-14T01:56:45.774Z,23.87
2018-11-14T01:59:13.902Z,32.10
2018-11-14T02:01:41.938Z,32.30
2018-11-14T02:04:09.973Z,32.20
2018-11-14T02:06:38.207Z,31.67
2018-11-14T02:09:07.190Z,33.40
2018-11-14T02:11:35.225Z,40.63
2018-11-14T02:14:03.274Z,26.43
2018-11-14T02:16:31.334Z,25.73
2018-11-14T02:18:59.406Z,47.07
2018-11-14T02:21:27.456Z,31.27
2018-11-14T02:23:55.508Z,43.30
2018-11-14T02:26:23.558Z,34.10
2018-11-14T02:28:52.566Z,24.63
2018-11-14T02:31:20.731Z,30.37
2018-11-14T02:33:48.995Z,30.63
2018-11-14T02:36:17.070Z,36.70
2018-11-14T02:38:45.251Z,36.53
2018-11-14T02:41:13.290Z,38.17
2018-11-14T02:43:41.335Z,40.27
2018-11-14T02:46:09.392Z,33.30
2018-11-14T02:48:37.445Z,53.37
2018-11-14T02:51:19.434Z,42.23
2018-11-14T02:53:47.471Z,30.60
2018-11-14T02:56:15.511Z,56.90
2018-11-14T02:58:43.554Z,36.23
2018-11-14T03:01:11.765Z,42.40
2018-11-14T03:03:39.843Z,46.13
2018-11-14T03:06:07.894Z,34.87
2018-11-14T03:08:36.001Z,43.97
2018-11-14T03:11:04.151Z,37.53
2018-11-14T03:13:32.241Z,36.77
2018-11-14T03:16:00.309Z,35.87
2018-11-14T03:18:28.366Z,37.63
2018-11-14T03:20:56.419Z,45.73
2018-11-14T03:23:24.516Z,38.63
2018-11-14T03:25:52.551Z,43.57
2018-11-14T03:28:20.594Z,40.87
2018-11-14T03:30:48.661Z,38.23
2018-11-14T03:33:16.733Z,49.37
2018-11-14T03:35:50.167Z,39.83
2018-11-14T03:38:18.203Z,46.63
2018-11-14T03:40:46.254Z,49.50
2018-11-14T03:43:14.310Z,43.30
2018-11-14T03:45:42.387Z,53.83
2018-11-14T03:48:10.413Z,44.53
2018-11-14T03:50:39.189Z,46.67
2018-11-14T03:53:07.242Z,44.17
2018-11-14T03:55:35.622Z,36.50
2018-11-14T03:58:03.840Z,50.10
2018-11-14T04:00:31.869Z,45.00
2018-11-14T04:02:59.956Z,48.30
2018-11-14T04:05:28.060Z,47.93
2018-11-14T04:07:56.047Z,46.67
2018-11-14T04:10:24.081Z,50.73
2018-11-14T04:12:52.148Z,51.10
2018-11-14T04:15:20.220Z,40.07
2018-11-14T04:17:48.932Z,47.87
2018-11-14T04:20:18.340Z,45.80
2018-11-14T04:22:46.986Z,64.63
2018-11-14T04:25:17.369Z,46.03
2018-11-14T04:27:46.072Z,53.43
2018-11-14T04:30:15.508Z,48.60
2018-11-14T04:32:44.161Z,59.50
2018-11-14T04:35:13.237Z,60.43
2018-11-14T04:37:41.298Z,55.30
2018-11-14T04:40:11.434Z,60.17
2018-11-14T04:42:39.641Z,55.03
2018-11-14T04:45:09.818Z,53.53
2018-11-14T04:47:37.867Z,76.00
2018-11-14T04:50:07.750Z,63.93
2018-11-14T04:52:35.789Z,72.60
2018-11-14T04:55:03.994Z,81.77
2018-11-14T04:57:32.034Z,65.33
2018-11-14T05:00:00.102Z,78.17
2018-11-14T05:02:28.309Z,78.27
2018-11-14T05:04:56.242Z,59.53
2018-11-14T05:07:24.406Z,80.60
2018-11-14T05:09:52.480Z,69.57
2018-11-14T05:12:20.556Z,83.00
2018-11-14T05:14:48.610Z,78.90
2018-11-14T05:17:16.664Z,73.53
2018-11-14T05:19:44.698Z,91.77
2018-11-14T05:22:12.782Z,80.43
2018-11-14T05:24:40.856Z,83.83
2018-11-14T05:27:08.909Z,93.63
2018-11-14T05:29:36.945Z,96.17
2018-11-14T05:32:05.108Z,86.03
2018-11-14T05:34:33.090Z,82.13
2018-11-14T05:37:01.172Z,105.70
2018-11-14T05:39:29.261Z,102.63
2018-11-14T05:41:57.276Z,107.27
2018-11-14T05:44:25.311Z,93.80
2018-11-14T05:46:53.364Z,98.13
2018-11-14T05:49:21.434Z,107.67
2018-11-14T05:51:49.486Z,111.87
2018-11-14T05:54:17.538Z,109.87
2018-11-14T05:56:45.626Z,106.07
2018-11-14T05:59:13.706Z,105.73
2018-11-14T06:01:41.762Z,106.20
2018-11-14T06:04:10.674Z,116.40
2018-11-14T06:06:38.730Z,104.50
2018-11-14T06:09:10.963Z,110.17
2018-11-14T06:11:39.995Z,100.67
2018-11-14T06:14:08.181Z,90.63
2018-11-14T06:16:36.624Z,93.47
2018-11-14T06:19:04.777Z,107.60
2018-11-14T06:21:33.195Z,102.17
2018-11-14T06:24:01.250Z,112.63
2018-11-14T06:26:29.819Z,101.67
2018-11-14T06:28:58.519Z,98.13
2018-11-14T06:31:26.563Z,104.83
2018-11-14T06:33:54.618Z,99.23
2018-11-14T06:36:22.677Z,91.57
2018-11-14T06:38:50.730Z,92.77
2018-11-14T06:41:19.710Z,84.37
2018-11-14T06:43:47.811Z,75.97
2018-11-14T06:46:17.294Z,86.80
2018-11-14T06:48:45.329Z,95.07
2018-11-14T06:51:14.554Z,90.77
2018-11-14T06:53:42.621Z,87.27
2018-11-14T06:56:11.650Z,74.63
2018-11-14T06:58:39.760Z,81.17
2018-11-14T07:01:07.751Z,71.20
2018-11-14T07:03:35.826Z,74.20
2018-11-14T07:06:04.159Z,71.57
2018-11-14T07:08:32.103Z,69.03
2018-11-14T07:11:00.199Z,71.90
2018-11-14T07:13:28.197Z,83.97
2018-11-14T07:15:56.270Z,84.97
2018-11-14T07:18:24.312Z,98.27
2018-11-14T07:20:52.422Z,93.40
2018-11-14T07:23:20.464Z,87.37
2018-11-14T07:25:48.705Z,96.67
2018-11-14T07:28:16.795Z,100.73
2018-11-14T07:30:45.968Z,96.53
2018-11-14T07:33:14.026Z,88.20
2018-11-14T07:35:42.103Z,81.23
2018-11-14T07:38:43.606Z,96.13
2018-11-14T07:41:16.261Z,104.83
2018-11-14T07:43:44.719Z,101.43
2018-11-14T07:46:13.491Z,103.43
2018-11-14T07:48:41.998Z,104.47
2018-11-14T07:51:10.334Z,89.03
2018-11-14T07:53:38.508Z,111.53
2018-11-14T07:56:06.742Z,102.97
2018-11-14T07:58:34.802Z,101.33
2018-11-14T08:01:02.883Z,107.23
2018-11-14T08:03:30.940Z,107.03
2018-11-14T08:06:00.269Z,127.27
2018-11-14T08:08:28.401Z,108.03
2018-11-14T08:10:56.389Z,111.20
2018-11-14T08:13:27.848Z,115.40
2018-11-14T08:15:57.414Z,116.03
2018-11-14T08:18:25.787Z,102.30
2018-11-14T08:20:53.994Z,102.63
2018-11-14T08:23:22.073Z,116.43
2018-11-14T08:25:50.129Z,120.30
2018-11-14T08:28:18.171Z,141.80
2018-11-14T08:30:46.599Z,105.90
2018-11-14T08:33:14.598Z,90.00
2018-11-14T08:35:42.657Z,99.23
2018-11-14T08:38:11.274Z,105.07
2018-11-14T08:40:39.437Z,104.23
2018-11-14T08:43:07.720Z,101.80
2018-11-14T08:45:35.887Z,115.53
2018-11-14T08:48:04.175Z,112.10
2018-11-14T08:50:32.226Z,113.27
2018-11-14T08:53:00.354Z,108.27
2018-11-14T08:55:28.419Z,112.33
2018-11-14T08:57:56.524Z,103.30
2018-11-14T09:00:25.846Z,109.13
2018-11-14T09:02:54.242Z,95.50
2018-11-14T09:05:22.343Z,131.13
2018-11-14T09:07:50.746Z,110.37
2018-11-14T09:10:20.085Z,104.40
2018-11-14T09:12:48.398Z,113.27
2018-11-14T09:15:18.678Z,99.00
2018-11-14T09:17:46.915Z,100.40
2018-11-14T09:20:19.226Z,83.87
2018-11-14T09:22:47.298Z,105.73
2018-11-14T09:25:22.021Z,89.53
2018-11-14T09:27:50.089Z,92.40
2018-11-14T09:30:20.448Z,108.80
2018-11-14T09:32:48.508Z,96.83
2018-11-14T09:35:18.577Z,80.60
2018-11-14T09:37:46.653Z,98.43
2018-11-14T09:40:16.360Z,92.20
2018-11-14T09:42:44.434Z,98.73
2018-11-14T09:45:13.851Z,95.93
2018-11-14T09:47:42.146Z,85.27
2018-11-14T09:50:14.102Z,81.47
2018-11-14T09:52:42.683Z,93.67
2018-11-14T09:55:11.458Z,67.77
2018-11-14T09:57:40.266Z,85.00
2018-11-14T10:00:16.140Z,71.83
2018-11-14T10:02:44.627Z,68.13
2018-11-14T10:05:15.328Z,63.73
2018-11-14T10:07:43.593Z,66.43
2018-11-14T10:10:15.040Z,64.90
2018-11-14T10:12:43.096Z,60.83
2018-11-14T10:15:13.674Z,56.03
2018-11-14T10:17:42.636Z,57.47
2018-11-14T10:20:19.924Z,66.53
2018-11-14T10:22:48.003Z,67.10
2018-11-14T10:25:16.576Z,55.93
2018-11-14T10:27:45.268Z,66.83
2018-11-14T10:30:19.547Z,81.33
2018-11-14T10:32:48.390Z,53.90
2018-11-14T10:35:16.463Z,76.30
2018-11-14T10:37:44.827Z,63.93
2018-11-14T10:40:15.261Z,65.63
2018-11-14T10:42:44.007Z,59.17
2018-11-14T10:45:13.561Z,63.13
2018-11-14T10:47:41.809Z,51.67
2018-11-14T10:50:12.349Z,49.33
2018-11-14T10:52:40.424Z,59.43
2018-11-14T10:55:10.537Z,52.67
2018-11-14T10:57:38.797Z,48.67
2018-11-14T11:00:29.146Z,55.13
2018-11-14T11:03:03.399Z,70.13
2018-11-14T11:05:36.907Z,68.30
2018-11-14T11:08:10.706Z,50.80
2018-11-14T11:10:44.110Z,54.20
2018-11-14T11:13:16.462Z,60.97
2018-11-14T11:15:50.207Z,62.20
2018-11-14T11:18:19.219Z,56.27
2018-11-14T11:20:47.269Z,56.13
2018-11-14T11:23:15.335Z,74.37
2018-11-14T11:25:43.390Z,69.50
2018-11-14T11:28:11.432Z,52.10
2018-11-14T11:30:40.025Z,73.27
2018-11-14T11:33:08.051Z,64.33
2018-11-14T11:35:36.139Z,58.87
2018-11-14T11:38:05.014Z,61.23
2018-11-14T11:40:33.256Z,63.67
2018-11-14T11:43:02.339Z,61.10
2018-11-14T11:45:30.435Z,66.33
2018-11-14T11:47:58.567Z,61.67
2018-11-14T11:50:26.774Z,59.03
2018-11-14T11:52:54.951Z,61.77
2018-11-14T11:55:23.045Z,54.30
2018-11-14T11:57:51.102Z,65.07
2018-11-14T12:00:19.344Z,65.70
2018-11-14T12:02:47.250Z,82.40
2018-11-14T12:05:15.404Z,60.17
2018-11-14T12:07:43.872Z,68.13
2018-11-14T12:10:14.045Z,65.10
2018-11-14T12:12:42.884Z,63.83
2018-11-14T12:15:11.933Z,70.40
2018-11-14T12:17:40.471Z,66.43
2018-11-14T12:20:09.685Z,88.30
2018-11-14T12:22:38.764Z,74.07
2018-11-14T12:25:08.312Z,59.87
2018-11-14T12:27:36.690Z,68.30
2018-11-14T12:30:08.592Z,80.80
2018-11-14T12:32:36.518Z,69.37
2018-11-14T12:35:05.854Z,65.90
2018-11-14T12:37:33.873Z,76.40
2018-11-14T12:40:01.944Z,66.53
2018-11-14T12:42:30.018Z,66.67
2018-11-14T12:44:59.019Z,83.80
2018-11-14T12:47:27.074Z,67.37
2018-11-14T12:49:55.122Z,76.87
2018-11-14T12:52:23.219Z,73.53
2018-11-14T12:54:51.313Z,67.13
2018-11-14T12:57:19.456Z,75.53
2018-11-14T12:59:47.581Z,75.37
2018-11-14T13:02:15.638Z,80.13
2018-11-14T13:04:43.701Z,80.17
2018-11-14T13:07:11.797Z,72.00
2018-11-14T13:09:39.848Z,74.50
2018-11-14T13:12:07.950Z,81.33
2018-11-14T13:14:36.076Z,78.90
2018-11-14T13:17:04.138Z,86.90
2018-11-14T13:19:32.197Z,66.40
2018-11-14T13:22:00.259Z,95.07
2018-11-14T13:24:28.317Z,86.13
2018-11-14T13:26:56.398Z,87.20
2018-11-14T13:29:24.457Z,78.63
2018-11-14T13:31:52.535Z,60.73
2018-11-14T13:34:20.597Z,93.73
2018-11-14T13:36:48.716Z,76.70
2018-11-14T13:39:16.774Z,66.33
2018-11-14T13:41:44.834Z,95.83
2018-11-14T13:44:12.900Z,75.43
2018-11-14T13:46:40.958Z,77.43
2018-11-14T13:49:09.128Z,73.00
2018-11-14T13:51:37.077Z,85.93
2018-11-14T13:54:05.337Z,78.67
2018-11-14T13:56:33.380Z,87.00
2018-11-14T13:59:01.457Z,76.07
2018-11-14T14:01:29.524Z,93.97
2018-11-14T14:03:57.580Z,68.10
2018-11-14T14:06:25.628Z,72.80
2018-11-14T14:08:53.701Z,72.60
2018-11-14T14:11:21.786Z,65.43
2018-11-14T14:13:56.037Z,76.13
2018-11-14T14:16:24.145Z,64.40
2018-11-14T14:18:52.322Z,74.70
2018-11-14T14:21:20.393Z,83.43
2018-11-14T14:23:48.457Z,80.53
2018-11-14T14:26:16.574Z,80.07
2018-11-14T14:28:44.755Z,85.73
2018-11-14T14:31:12.802Z,69.03
2018-11-14T14:33:40.851Z,72.43
2018-11-14T14:36:09.004Z,69.77
2018-11-14T14:38:37.130Z,82.13
2018-11-14T14:41:05.554Z,70.03
2018-11-14T14:43:33.649Z,81.97
2018-11-14T14:46:01.749Z,67.93
2018-11-14T14:48:29.838Z,63.63
2018-11-14T14:50:57.894Z,78.03
2018-11-14T14:53:26.078Z,67.00
2018-11-14T14:55:54.156Z,79.83
2018-11-14T14:58:22.502Z,76.77
2018-11-14T15:00:50.586Z,96.70
2018-11-14T15:03:18.802Z,66.23
2018-11-14T15:05:46.903Z,62.33
2018-11-14T15:08:15.087Z,96.70
2018-11-14T15:10:43.194Z,92.77
2018-11-14T15:13:11.515Z,61.03
2018-11-14T15:15:40.161Z,74.27
2018-11-14T15:18:08.194Z,91.57
2018-11-14T15:20:36.259Z,71.20
2018-11-14T15:23:04.367Z,73.37
2018-11-14T15:25:32.416Z,50.87
2018-11-14T15:28:00.487Z,61.03
2018-11-14T15:30:29.440Z,59.13
2018-11-14T15:32:57.499Z,54.63
2018-11-14T15:35:25.695Z,55.93
2018-11-14T15:37:53.668Z,60.03
2018-11-14T15:40:23.155Z,48.97
2018-11-14T15:42:51.317Z,63.97
2018-11-14T15:45:20.752Z,54.93
2018-11-14T15:47:48.860Z,42.63
2018-11-14T15:50:19.376Z,62.97
2018-11-14T15:52:48.325Z,55.70
2018-11-14T15:55:17.430Z,44.67
2018-11-14T15:57:45.543Z,55.23
2018-11-14T16:00:17.774Z,51.17
2018-11-14T16:02:45.866Z,48.07
2018-11-14T16:05:16.071Z,50.27
2018-11-14T16:07:45.355Z,40.47
2018-11-14T16:10:14.857Z,47.40
2018-11-14T16:12:43.330Z,40.83
2018-11-14T16:15:12.746Z,51.90
2018-11-14T16:17:41.116Z,44.57
2018-11-14T16:20:11.097Z,44.77
2018-11-14T16:22:40.155Z,41.00
2018-11-14T16:25:10.712Z,51.83
2018-11-14T16:27:38.990Z,29.20
2018-11-14T16:30:13.253Z,39.37
2018-11-14T16:32:41.516Z,48.60
2018-11-14T16:35:09.773Z,34.00
2018-11-14T16:37:41.249Z,44.67
2018-11-14T16:40:12.181Z,38.03
2018-11-14T16:42:40.653Z,40.53
2018-11-14T16:45:08.961Z,32.47
2018-11-14T16:47:37.329Z,28.90
2018-11-14T16:50:05.681Z,38.70
2018-11-14T16:52:33.786Z,37.57
2018-11-14T16:55:02.263Z,44.27
2018-11-14T16:57:30.350Z,34.37
2018-11-14T16:59:58.542Z,36.83
2018-11-14T17:02:33.276Z,45.17
2018-11-14T17:05:01.384Z,35.27
2018-11-14T17:07:29.457Z,34.23
2018-11-14T17:09:57.510Z,42.10
2018-11-14T17:12:25.589Z,34.73
2018-11-14T17:14:53.762Z,40.57
2018-11-14T17:17:21.763Z,36.83
2018-11-14T17:19:49.827Z,52.87
2018-11-14T17:22:17.891Z,37.33
2018-11-14T17:24:45.944Z,40.67
2018-11-14T17:27:14.008Z,48.77
2018-11-14T17:29:42.079Z,40.73
2018-11-14T17:32:10.170Z,31.27
2018-11-14T17:34:38.223Z,31.07
2018-11-14T17:37:06.479Z,29.63
2018-11-14T17:39:34.558Z,30.97
2018-11-14T17:42:03.159Z,44.10
2018-11-14T17:44:31.051Z,33.70
2018-11-14T17:46:59.107Z,45.27
2018-11-14T17:49:27.174Z,37.47
2018-11-14T17:51:55.277Z,42.20
2018-11-14T17:54:23.883Z,42.00
2018-11-14T17:56:51.955Z,39.23
2018-11-14T17:59:20.048Z,27.97
2018-11-14T18:01:48.104Z,36.40
2018-11-14T18:04:16.202Z,31.80
2018-11-14T18:06:44.285Z,54.40
2018-11-14T18:09:13.900Z,52.83
2018-11-14T18:11:42.168Z,38.80
2018-11-14T18:14:10.344Z,43.90
2018-11-14T18:16:38.950Z,36.67
2018-11-14T18:19:07.338Z,24.60
2018-11-14T18:21:35.439Z,38.53
2018-11-14T18:24:03.655Z,32.80
2018-11-14T18:26:31.710Z,41.47
2018-11-14T18:28:59.769Z,43.43
2018-11-14T18:31:27.822Z,29.20
2018-11-14T18:33:55.906Z,34.80
2018-11-14T18:36:24.068Z,39.17
2018-11-14T18:38:52.092Z,57.63
2018-11-14T18:41:20.154Z,37.37
2018-11-14T18:43:48.554Z,49.70
2018-11-14T18:46:16.606Z,45.97
2018-11-14T18:48:44.690Z,33.30
2018-11-14T18:51:12.758Z,36.90
2018-11-14T18:53:40.832Z,32.00
2018-11-14T18:56:08.878Z,40.73
2018-11-14T18:58:36.953Z,32.53
2018-11-14T19:01:05.558Z,40.00
2018-11-14T19:03:33.631Z,36.47
2018-11-14T19:06:01.739Z,54.80
2018-11-14T19:08:29.789Z,25.97
2018-11-14T19:10:57.850Z,28.50
2018-11-14T19:13:25.904Z,29.27
2018-11-14T19:15:53.966Z,46.27
2018-11-14T19:18:22.027Z,28.63
2018-11-14T19:20:50.060Z,45.17
2018-11-14T19:23:18.120Z,39.47
2018-11-14T19:25:46.161Z,42.67
2018-11-14T19:28:14.266Z,23.53
2018-11-14T19:30:42.387Z,30.50
2018-11-14T19:33:10.370Z,55.10
2018-11-14T19:35:38.413Z,40.30
2018-11-14T19:38:06.497Z,38.63
2018-11-14T19:40:35.606Z,45.67
2018-11-14T19:43:05.536Z,32.33
2018-11-14T19:45:35.045Z,37.27
2018-11-14T19:48:03.118Z,31.13
2018-11-14T19:50:31.254Z,27.07
2018-11-14T19:52:59.258Z,29.90
2018-11-14T19:55:28.104Z,45.10
2018-11-14T19:57:57.318Z,33.30
2018-11-14T20:00:28.625Z,39.20
2018-11-14T20:02:56.693Z,25.00
2018-11-14T20:05:24.897Z,35.53
2018-11-14T20:07:53.539Z,26.97
2018-11-14T20:10:25.945Z,29.23
2018-11-14T20:12:54.483Z,26.73
2018-11-14T20:15:28.079Z,25.47
2018-11-14T20:17:56.170Z,41.33
2018-11-14T20:20:26.438Z,23.70
2018-11-14T20:22:54.531Z,31.03
2018-11-14T20:25:22.567Z,43.83
2018-11-14T20:27:50.743Z,29.30
2018-11-14T20:30:21.575Z,32.40
2018-11-14T20:32:50.258Z,35.90
2018-11-14T20:35:19.886Z,30.60
2018-11-14T20:37:48.030Z,28.27
2018-11-14T20:42:50.051Z,28.20
2018-11-14T20:45:21.388Z,33.03
2018-11-14T20:47:49.486Z,33.00
2018-11-14T20:50:19.047Z,23.17
2018-11-14T20:52:48.389Z,23.77
2018-11-14T20:55:17.138Z,24.90
2018-11-14T20:57:46.465Z,28.13
2018-11-14T21:00:22.727Z,31.77
2018-11-14T21:02:51.559Z,27.47
2018-11-14T21:05:19.770Z,29.60
2018-11-14T21:07:47.898Z,30.67
2018-11-14T21:10:17.658Z,25.60
2018-11-14T21:12:46.046Z,39.10
2018-11-14T21:15:16.383Z,27.10
2018-11-14T21:17:44.532Z,26.67
2018-11-14T21:20:12.647Z,28.80
2018-11-14T21:22:41.374Z,28.10
2018-11-14T21:25:11.009Z,41.03
2018-11-14T21:27:39.949Z,36.27
2018-11-14T21:30:10.667Z,30.37
2018-11-14T21:32:39.993Z,34.20
2018-11-14T21:35:10.023Z,42.23
2018-11-14T21:37:38.814Z,34.33
2018-11-14T21:40:08.248Z,43.23
2018-11-14T21:42:36.606Z,27.10
2018-11-14T21:45:04.870Z,34.90
2018-11-14T21:47:34.138Z,32.53
2018-11-14T21:50:02.790Z,33.10
2018-11-14T21:52:31.019Z,26.97
2018-11-14T21:54:59.101Z,33.63
2018-11-14T21:57:27.250Z,30.60
2018-11-14T21:59:55.407Z,27.93
2018-11-14T22:02:23.520Z,26.80
2018-11-14T22:04:51.960Z,32.93
2018-11-14T22:07:20.040Z,21.57
2018-11-14T22:09:48.227Z,28.80
2018-11-14T22:12:16.438Z,29.20
2018-11-14T22:14:44.764Z,21.37
2018-11-14T22:17:12.851Z,30.03
2018-11-14T22:19:41.122Z,31.63
2018-11-14T22:22:09.248Z,17.57
2018-11-14T22:24:37.550Z,25.40
2018-11-14T22:27:05.635Z,25.07
2018-11-14T22:29:33.725Z,26.67
2018-11-14T22:32:01.792Z,23.83
2018-11-14T22:34:29.877Z,23.47
2018-11-14T22:36:58.450Z,28.33
2018-11-14T22:39:26.510Z,30.47
2018-11-14T22:41:54.586Z,22.97
2018-11-14T22:44:22.648Z,24.87
2018-11-14T22:46:50.701Z,20.00
2018-11-14T22:49:18.929Z,26.77
2018-11-14T22:51:46.978Z,25.17
2018-11-14T22:54:15.044Z,27.30
2018-11-14T22:56:43.094Z,26.33
2018-11-14T22:59:11.146Z,21.80
2018-11-14T23:01:39.186Z,16.30
2018-11-14T23:04:07.275Z,24.13
2018-11-14T23:06:35.330Z,23.83
2018-11-14T23:09:04.690Z,23.70
2018-11-14T23:11:32.765Z,26.00
2018-11-14T23:14:00.820Z,25.13
2018-11-14T23:16:28.848Z,18.10
2018-11-14T23:18:56.898Z,19.90
2018-11-14T23:21:24.941Z,18.50
2018-11-14T23:23:52.994Z,19.67
2018-11-14T23:26:21.037Z,23.63
2018-11-14T23:28:49.089Z,17.27
2018-11-14T23:31:17.120Z,22.27
2018-11-14T23:33:45.170Z,29.57
2018-11-14T23:36:13.201Z,33.73
2018-11-14T23:38:41.239Z,18.30
2018-11-14T23:41:09.281Z,21.43
2018-11-14T23:43:37.386Z,16.07
2018-11-14T23:46:06.002Z,21.50
2018-11-14T23:48:34.056Z,23.40
2018-11-14T23:51:02.098Z,28.07
2018-11-14T23:53:30.126Z,22.27
2018-11-14T23:55:58.205Z,22.10
2018-11-14T23:58:26.258Z,18.93
